sensor_id;sensor_type;location;lat;lon;timestamp;P1;durP1;ratioP1;P2;durP2;ratioP2
49175;SDS011;35012;47.200;9.748;2023-11-21T00:01:26;0.40;;;0.40;;
49175;SDS011;35012;47.200;9.748;2023-11-21T00:03:51;0.57;;;0.57;;
49175;SDS011;35012;47.200;9.748;2023-11-21T00:06:19;0.40;;;0.40;;
49175;SDS011;35012;47.200;9.748;2023-11-21T00:08:45;0.40;;;0.40;;
49175;SDS011;35012;47.200;9.748;2023-11-21T00:11:11;0.40;;;0.40;;
49175;SDS011;35012;47.200;9.748;2023-11-21T00:13:36;2.13;;;0.97;;
49175;SDS011;35012;47.200;9.748;2023-11-21T00:16:02;0.40;;;0.40;;
49175;SDS011;35012;47.200;9.748;2023-11-21T00:18:29;0.30;;;0.30;;
49175;SDS011;35012;47.200;9.748;2023-11-21T00:20:54;0.40;;;0.40;;
49175;SDS011;35012;47.200;9.748;2023-11-21T00:23:20;0.57;;;0.50;;
49175;SDS011;35012;47.200;9.748;2023-11-21T00:25:45;0.87;;;0.87;;
49175;SDS011;35012;47.200;9.748;2023-11-21T00:28:11;0.50;;;0.50;;
49175;SDS011;35012;47.200;9.748;2023-11-21T00:30:36;0.40;;;0.40;;
49175;SDS011;35012;47.200;9.748;2023-11-21T00:33:01;0.47;;;0.47;;
49175;SDS011;35012;47.200;9.748;2023-11-21T00:35:27;0.40;;;0.40;;
49175;SDS011;35012;47.200;9.748;2023-11-21T00:37:52;0.30;;;0.30;;
49175;SDS011;35012;47.200;9.748;2023-11-21T00:40:18;0.40;;;0.40;;
49175;SDS011;35012;47.200;9.748;2023-11-21T00:42:46;0.70;;;0.70;;
49175;SDS011;35012;47.200;9.748;2023-11-21T00:45:12;0.60;;;0.60;;
49175;SDS011;35012;47.200;9.748;2023-11-21T00:47:38;0.50;;;0.50;;
49175;SDS011;35012;47.200;9.748;2023-11-21T00:50:04;0.40;;;0.40;;
49175;SDS011;35012;47.200;9.748;2023-11-21T00:52:31;0.40;;;0.40;;
49175;SDS011;35012;47.200;9.748;2023-11-21T00:54:56;2.53;;;0.60;;
49175;SDS011;35012;47.200;9.748;2023-11-21T00:57:24;0.30;;;0.30;;
49175;SDS011;35012;47.200;9.748;2023-11-21T00:59:49;1.43;;;1.33;;
49175;SDS011;35012;47.200;9.748;2023-11-21T01:02:15;0.60;;;0.60;;
49175;SDS011;35012;47.200;9.748;2023-11-21T01:04:40;0.43;;;0.43;;
49175;SDS011;35012;47.200;9.748;2023-11-21T01:07:06;0.40;;;0.40;;
49175;SDS011;35012;47.200;9.748;2023-11-21T01:09:31;0.40;;;0.40;;
49175;SDS011;35012;47.200;9.748;2023-11-21T01:11:56;1.13;;;0.97;;
49175;SDS011;35012;47.200;9.748;2023-11-21T01:14:22;0.40;;;0.40;;
49175;SDS011;35012;47.200;9.748;2023-11-21T01:16:47;0.30;;;0.30;;
49175;SDS011;35012;47.200;9.748;2023-11-21T01:19:14;0.40;;;0.40;;
49175;SDS011;35012;47.200;9.748;2023-11-21T01:21:39;0.40;;;0.40;;
49175;SDS011;35012;47.200;9.748;2023-11-21T01:24:04;0.40;;;0.40;;
49175;SDS011;35012;47.200;9.748;2023-11-21T01:26:32;0.50;;;0.50;;
49175;SDS011;35012;47.200;9.748;2023-11-21T01:28:58;0.33;;;0.33;;
49175;SDS011;35012;47.200;9.748;2023-11-21T01:31:24;0.40;;;0.40;;
49175;SDS011;35012;47.200;9.748;2023-11-21T01:33:52;0.40;;;0.40;;
49175;SDS011;35012;47.200;9.748;2023-11-21T01:36:17;0.30;;;0.30;;
49175;SDS011;35012;47.200;9.748;2023-11-21T01:38:43;0.63;;;0.63;;
49175;SDS011;35012;47.200;9.748;2023-11-21T01:41:08;0.57;;;0.57;;
49175;SDS011;35012;47.200;9.748;2023-11-21T01:43:36;0.30;;;0.30;;
49175;SDS011;35012;47.200;9.748;2023-11-21T01:46:02;0.30;;;0.30;;
49175;SDS011;35012;47.200;9.748;2023-11-21T01:48:27;0.40;;;0.40;;
49175;SDS011;35012;47.200;9.748;2023-11-21T01:50:54;0.40;;;0.40;;
49175;SDS011;35012;47.200;9.748;2023-11-21T01:53:19;0.40;;;0.40;;
49175;SDS011;35012;47.200;9.748;2023-11-21T01:55:45;0.37;;;0.37;;
49175;SDS011;35012;47.200;9.748;2023-11-21T01:58:11;1.70;;;1.00;;
49175;SDS011;35012;47.200;9.748;2023-11-21T02:00:37;0.70;;;0.67;;
49175;SDS011;35012;47.200;9.748;2023-11-21T02:03:03;0.50;;;0.50;;
49175;SDS011;35012;47.200;9.748;2023-11-21T02:05:29;0.37;;;0.37;;
49175;SDS011;35012;47.200;9.748;2023-11-21T02:07:54;0.50;;;0.50;;
49175;SDS011;35012;47.200;9.748;2023-11-21T02:10:21;0.50;;;0.50;;
49175;SDS011;35012;47.200;9.748;2023-11-21T02:12:50;1.40;;;0.80;;
49175;SDS011;35012;47.200;9.748;2023-11-21T02:15:16;0.57;;;0.57;;
49175;SDS011;35012;47.200;9.748;2023-11-21T02:17:48;0.43;;;0.43;;
49175;SDS011;35012;47.200;9.748;2023-11-21T02:20:19;0.70;;;0.70;;
49175;SDS011;35012;47.200;9.748;2023-11-21T02:22:55;0.60;;;0.60;;
49175;SDS011;35012;47.200;9.748;2023-11-21T02:25:29;0.57;;;0.57;;
49175;SDS011;35012;47.200;9.748;2023-11-21T02:27:55;0.50;;;0.50;;
49175;SDS011;35012;47.200;9.748;2023-11-21T02:30:22;0.60;;;0.60;;
49175;SDS011;35012;47.200;9.748;2023-11-21T02:32:50;0.50;;;0.50;;
49175;SDS011;35012;47.200;9.748;2023-11-21T02:35:18;1.00;;;0.93;;
49175;SDS011;35012;47.200;9.748;2023-11-21T02:37:46;0.50;;;0.50;;
49175;SDS011;35012;47.200;9.748;2023-11-21T02:40:14;0.83;;;0.83;;
49175;SDS011;35012;47.200;9.748;2023-11-21T02:42:43;0.47;;;0.47;;
49175;SDS011;35012;47.200;9.748;2023-11-21T02:45:10;0.50;;;0.50;;
49175;SDS011;35012;47.200;9.748;2023-11-21T02:47:38;0.80;;;0.80;;
49175;SDS011;35012;47.200;9.748;2023-11-21T02:50:04;0.87;;;0.87;;
49175;SDS011;35012;47.200;9.748;2023-11-21T02:52:32;0.80;;;0.80;;
49175;SDS011;35012;47.200;9.748;2023-11-21T02:54:58;1.03;;;0.83;;
49175;SDS011;35012;47.200;9.748;2023-11-21T02:57:23;0.40;;;0.40;;
49175;SDS011;35012;47.200;9.748;2023-11-21T02:59:49;0.60;;;0.60;;
49175;SDS011;35012;47.200;9.748;2023-11-21T03:02:15;0.40;;;0.40;;
49175;SDS011;35012;47.200;9.748;2023-11-21T03:04:40;0.87;;;0.60;;
49175;SDS011;35012;47.200;9.748;2023-11-21T03:07:07;0.60;;;0.60;;
49175;SDS011;35012;47.200;9.748;2023-11-21T03:09:33;1.10;;;1.10;;
49175;SDS011;35012;47.200;9.748;2023-11-21T03:11:59;0.40;;;0.40;;
49175;SDS011;35012;47.200;9.748;2023-11-21T03:14:24;0.90;;;0.70;;
49175;SDS011;35012;47.200;9.748;2023-11-21T03:16:49;1.93;;;1.60;;
49175;SDS011;35012;47.200;9.748;2023-11-21T03:19:15;0.50;;;0.50;;
49175;SDS011;35012;47.200;9.748;2023-11-21T03:21:40;0.40;;;0.40;;
49175;SDS011;35012;47.200;9.748;2023-11-21T03:24:06;0.80;;;0.80;;
49175;SDS011;35012;47.200;9.748;2023-11-21T03:26:32;0.60;;;0.60;;
49175;SDS011;35012;47.200;9.748;2023-11-21T03:28:58;0.73;;;0.63;;
49175;SDS011;35012;47.200;9.748;2023-11-21T03:31:23;0.60;;;0.60;;
49175;SDS011;35012;47.200;9.748;2023-11-21T03:33:48;0.40;;;0.40;;
49175;SDS011;35012;47.200;9.748;2023-11-21T03:36:14;0.33;;;0.33;;
49175;SDS011;35012;47.200;9.748;2023-11-21T03:38:40;1.60;;;0.87;;
49175;SDS011;35012;47.200;9.748;2023-11-21T03:41:06;0.80;;;0.80;;
49175;SDS011;35012;47.200;9.748;2023-11-21T03:43:32;0.30;;;0.30;;
49175;SDS011;35012;47.200;9.748;2023-11-21T03:45:58;0.40;;;0.40;;
49175;SDS011;35012;47.200;9.748;2023-11-21T03:48:23;1.50;;;1.40;;
49175;SDS011;35012;47.200;9.748;2023-11-21T03:50:48;0.77;;;0.77;;
49175;SDS011;35012;47.200;9.748;2023-11-21T03:53:14;1.10;;;1.10;;
49175;SDS011;35012;47.200;9.748;2023-11-21T03:55:39;0.90;;;0.90;;
49175;SDS011;35012;47.200;9.748;2023-11-21T03:58:05;1.13;;;1.03;;
49175;SDS011;35012;47.200;9.748;2023-11-21T04:00:30;0.37;;;0.37;;
49175;SDS011;35012;47.200;9.748;2023-11-21T04:02:56;1.20;;;1.20;;
49175;SDS011;35012;47.200;9.748;2023-11-21T04:05:21;0.50;;;0.50;;
49175;SDS011;35012;47.200;9.748;2023-11-21T04:07:48;1.10;;;1.10;;
49175;SDS011;35012;47.200;9.748;2023-11-21T04:10:15;0.97;;;0.97;;
49175;SDS011;35012;47.200;9.748;2023-11-21T04:12:40;0.80;;;0.80;;
49175;SDS011;35012;47.200;9.748;2023-11-21T04:15:06;0.40;;;0.40;;
49175;SDS011;35012;47.200;9.748;2023-11-21T04:17:33;0.60;;;0.60;;
49175;SDS011;35012;47.200;9.748;2023-11-21T04:19:59;0.70;;;0.70;;
49175;SDS011;35012;47.200;9.748;2023-11-21T04:22:25;1.90;;;1.70;;
49175;SDS011;35012;47.200;9.748;2023-11-21T04:24:50;1.60;;;1.17;;
49175;SDS011;35012;47.200;9.748;2023-11-21T04:27:15;0.37;;;0.37;;
49175;SDS011;35012;47.200;9.748;2023-11-21T04:29:43;0.70;;;0.70;;
49175;SDS011;35012;47.200;9.748;2023-11-21T04:32:09;0.50;;;0.50;;
49175;SDS011;35012;47.200;9.748;2023-11-21T04:34:34;0.80;;;0.73;;
49175;SDS011;35012;47.200;9.748;2023-11-21T04:37:00;0.63;;;0.63;;
49175;SDS011;35012;47.200;9.748;2023-11-21T04:39:25;0.90;;;0.90;;
49175;SDS011;35012;47.200;9.748;2023-11-21T04:41:51;0.50;;;0.50;;
49175;SDS011;35012;47.200;9.748;2023-11-21T04:44:16;0.60;;;0.60;;
49175;SDS011;35012;47.200;9.748;2023-11-21T04:46:42;0.47;;;0.47;;
49175;SDS011;35012;47.200;9.748;2023-11-21T04:49:07;0.60;;;0.60;;
49175;SDS011;35012;47.200;9.748;2023-11-21T04:51:33;0.43;;;0.43;;
49175;SDS011;35012;47.200;9.748;2023-11-21T04:53:58;2.93;;;0.93;;
49175;SDS011;35012;47.200;9.748;2023-11-21T04:56:24;0.70;;;0.70;;
49175;SDS011;35012;47.200;9.748;2023-11-21T04:58:49;0.43;;;0.43;;
49175;SDS011;35012;47.200;9.748;2023-11-21T05:01:15;0.67;;;0.67;;
49175;SDS011;35012;47.200;9.748;2023-11-21T05:03:40;3.33;;;0.90;;
49175;SDS011;35012;47.200;9.748;2023-11-21T05:06:06;0.57;;;0.57;;
49175;SDS011;35012;47.200;9.748;2023-11-21T05:08:34;0.40;;;0.40;;
49175;SDS011;35012;47.200;9.748;2023-11-21T05:10:59;0.40;;;0.40;;
49175;SDS011;35012;47.200;9.748;2023-11-21T05:13:25;0.60;;;0.60;;
49175;SDS011;35012;47.200;9.748;2023-11-21T05:15:53;0.77;;;0.77;;
49175;SDS011;35012;47.200;9.748;2023-11-21T05:18:20;0.40;;;0.40;;
49175;SDS011;35012;47.200;9.748;2023-11-21T05:20:45;0.90;;;0.90;;
49175;SDS011;35012;47.200;9.748;2023-11-21T05:23:12;0.50;;;0.50;;
49175;SDS011;35012;47.200;9.748;2023-11-21T05:25:37;0.80;;;0.73;;
49175;SDS011;35012;47.200;9.748;2023-11-21T05:28:03;0.73;;;0.73;;
49175;SDS011;35012;47.200;9.748;2023-11-21T05:30:29;0.60;;;0.60;;
49175;SDS011;35012;47.200;9.748;2023-11-21T05:32:54;0.40;;;0.40;;
49175;SDS011;35012;47.200;9.748;2023-11-21T05:35:20;0.30;;;0.30;;
49175;SDS011;35012;47.200;9.748;2023-11-21T05:37:46;0.50;;;0.50;;
49175;SDS011;35012;47.200;9.748;2023-11-21T05:40:12;0.93;;;0.93;;
49175;SDS011;35012;47.200;9.748;2023-11-21T05:42:38;0.30;;;0.30;;
49175;SDS011;35012;47.200;9.748;2023-11-21T05:45:04;0.40;;;0.40;;
49175;SDS011;35012;47.200;9.748;2023-11-21T05:47:36;3.80;;;2.53;;
49175;SDS011;35012;47.200;9.748;2023-11-21T05:50:05;0.30;;;0.30;;
49175;SDS011;35012;47.200;9.748;2023-11-21T05:52:34;1.57;;;1.03;;
49175;SDS011;35012;47.200;9.748;2023-11-21T05:55:00;15.40;;;0.87;;
49175;SDS011;35012;47.200;9.748;2023-11-21T05:57:25;0.70;;;0.63;;
49175;SDS011;35012;47.200;9.748;2023-11-21T05:59:50;0.63;;;0.63;;
49175;SDS011;35012;47.200;9.748;2023-11-21T06:02:16;0.47;;;0.47;;
49175;SDS011;35012;47.200;9.748;2023-11-21T06:04:41;2.70;;;1.67;;
49175;SDS011;35012;47.200;9.748;2023-11-21T06:07:07;0.70;;;0.70;;
49175;SDS011;35012;47.200;9.748;2023-11-21T06:09:32;0.50;;;0.50;;
49175;SDS011;35012;47.200;9.748;2023-11-21T06:11:58;0.80;;;0.80;;
49175;SDS011;35012;47.200;9.748;2023-11-21T06:14:23;0.60;;;0.60;;
49175;SDS011;35012;47.200;9.748;2023-11-21T06:16:49;1.40;;;1.30;;
49175;SDS011;35012;47.200;9.748;2023-11-21T06:19:16;0.60;;;0.60;;
49175;SDS011;35012;47.200;9.748;2023-11-21T06:21:44;0.70;;;0.70;;
49175;SDS011;35012;47.200;9.748;2023-11-21T06:24:10;0.80;;;0.80;;
49175;SDS011;35012;47.200;9.748;2023-11-21T06:26:36;0.67;;;0.67;;
49175;SDS011;35012;47.200;9.748;2023-11-21T06:29:01;0.80;;;0.80;;
49175;SDS011;35012;47.200;9.748;2023-11-21T06:31:28;1.00;;;1.00;;
49175;SDS011;35012;47.200;9.748;2023-11-21T06:33:54;1.80;;;1.40;;
49175;SDS011;35012;47.200;9.748;2023-11-21T06:36:20;1.97;;;1.77;;
49175;SDS011;35012;47.200;9.748;2023-11-21T06:38:45;2.10;;;1.97;;
49175;SDS011;35012;47.200;9.748;2023-11-21T06:41:11;1.77;;;1.57;;
49175;SDS011;35012;47.200;9.748;2023-11-21T06:43:38;2.83;;;2.63;;
49175;SDS011;35012;47.200;9.748;2023-11-21T06:46:04;1.83;;;1.73;;
49175;SDS011;35012;47.200;9.748;2023-11-21T06:48:30;2.43;;;1.97;;
49175;SDS011;35012;47.200;9.748;2023-11-21T06:50:56;2.10;;;1.90;;
49175;SDS011;35012;47.200;9.748;2023-11-21T06:53:21;2.20;;;2.10;;
49175;SDS011;35012;47.200;9.748;2023-11-21T06:55:46;1.53;;;1.13;;
49175;SDS011;35012;47.200;9.748;2023-11-21T06:58:12;1.50;;;1.43;;
49175;SDS011;35012;47.200;9.748;2023-11-21T07:00:39;1.37;;;1.27;;
49175;SDS011;35012;47.200;9.748;2023-11-21T07:03:04;3.40;;;1.70;;
49175;SDS011;35012;47.200;9.748;2023-11-21T07:05:30;0.93;;;0.93;;
49175;SDS011;35012;47.200;9.748;2023-11-21T07:07:55;1.37;;;1.30;;
49175;SDS011;35012;47.200;9.748;2023-11-21T07:10:21;1.07;;;1.00;;
49175;SDS011;35012;47.200;9.748;2023-11-21T07:12:47;1.43;;;1.00;;
49175;SDS011;35012;47.200;9.748;2023-11-21T07:15:12;1.03;;;1.03;;
49175;SDS011;35012;47.200;9.748;2023-11-21T07:17:37;0.63;;;0.63;;
49175;SDS011;35012;47.200;9.748;2023-11-21T07:20:03;1.30;;;1.20;;
49175;SDS011;35012;47.200;9.748;2023-11-21T07:22:29;1.30;;;1.20;;
49175;SDS011;35012;47.200;9.748;2023-11-21T07:24:55;0.80;;;0.80;;
49175;SDS011;35012;47.200;9.748;2023-11-21T07:27:21;0.60;;;0.60;;
49175;SDS011;35012;47.200;9.748;2023-11-21T07:29:47;1.30;;;1.20;;
49175;SDS011;35012;47.200;9.748;2023-11-21T07:32:13;1.40;;;1.33;;
49175;SDS011;35012;47.200;9.748;2023-11-21T07:34:39;0.97;;;0.97;;
49175;SDS011;35012;47.200;9.748;2023-11-21T07:37:05;1.00;;;1.00;;
49175;SDS011;35012;47.200;9.748;2023-11-21T07:39:30;0.43;;;0.43;;
49175;SDS011;35012;47.200;9.748;2023-11-21T07:41:56;0.83;;;0.83;;
49175;SDS011;35012;47.200;9.748;2023-11-21T07:44:23;0.70;;;0.70;;
49175;SDS011;35012;47.200;9.748;2023-11-21T07:46:48;1.30;;;1.13;;
49175;SDS011;35012;47.200;9.748;2023-11-21T07:49:14;1.13;;;1.03;;
49175;SDS011;35012;47.200;9.748;2023-11-21T07:51:42;0.80;;;0.80;;
49175;SDS011;35012;47.200;9.748;2023-11-21T07:54:08;0.50;;;0.50;;
49175;SDS011;35012;47.200;9.748;2023-11-21T07:56:35;1.27;;;1.17;;
49175;SDS011;35012;47.200;9.748;2023-11-21T07:59:00;0.50;;;0.50;;
49175;SDS011;35012;47.200;9.748;2023-11-21T08:01:25;1.53;;;1.43;;
49175;SDS011;35012;47.200;9.748;2023-11-21T08:03:53;1.00;;;1.00;;
49175;SDS011;35012;47.200;9.748;2023-11-21T08:06:22;1.43;;;1.33;;
49175;SDS011;35012;47.200;9.748;2023-11-21T08:08:48;3.27;;;3.03;;
49175;SDS011;35012;47.200;9.748;2023-11-21T08:11:14;4.67;;;4.10;;
49175;SDS011;35012;47.200;9.748;2023-11-21T08:13:39;4.53;;;3.90;;
49175;SDS011;35012;47.200;9.748;2023-11-21T08:16:05;2.67;;;2.47;;
49175;SDS011;35012;47.200;9.748;2023-11-21T08:18:32;4.07;;;3.77;;
49175;SDS011;35012;47.200;9.748;2023-11-21T08:20:57;5.67;;;2.07;;
49175;SDS011;35012;47.200;9.748;2023-11-21T08:23:23;1.87;;;1.77;;
49175;SDS011;35012;47.200;9.748;2023-11-21T08:25:54;1.40;;;1.30;;
49175;SDS011;35012;47.200;9.748;2023-11-21T08:28:20;3.60;;;1.20;;
49175;SDS011;35012;47.200;9.748;2023-11-21T08:30:51;1.37;;;1.30;;
49175;SDS011;35012;47.200;9.748;2023-11-21T08:33:17;1.20;;;1.10;;
49175;SDS011;35012;47.200;9.748;2023-11-21T08:35:42;0.80;;;0.80;;
49175;SDS011;35012;47.200;9.748;2023-11-21T08:38:08;0.53;;;0.53;;
49175;SDS011;35012;47.200;9.748;2023-11-21T08:40:35;1.83;;;1.53;;
49175;SDS011;35012;47.200;9.748;2023-11-21T08:43:00;0.50;;;0.50;;
49175;SDS011;35012;47.200;9.748;2023-11-21T08:45:26;0.73;;;0.73;;
49175;SDS011;35012;47.200;9.748;2023-11-21T08:47:51;0.53;;;0.53;;
49175;SDS011;35012;47.200;9.748;2023-11-21T08:50:17;0.87;;;0.60;;
49175;SDS011;35012;47.200;9.748;2023-11-21T08:52:43;1.27;;;0.60;;
49175;SDS011;35012;47.200;9.748;2023-11-21T08:55:09;0.47;;;0.47;;
49175;SDS011;35012;47.200;9.748;2023-11-21T08:57:37;0.30;;;0.30;;
49175;SDS011;35012;47.200;9.748;2023-11-21T09:00:03;1.10;;;1.10;;
49175;SDS011;35012;47.200;9.748;2023-11-21T09:02:32;0.70;;;0.70;;
49175;SDS011;35012;47.200;9.748;2023-11-21T09:04:58;0.70;;;0.70;;
49175;SDS011;35012;47.200;9.748;2023-11-21T09:07:24;0.37;;;0.37;;
49175;SDS011;35012;47.200;9.748;2023-11-21T09:09:50;0.80;;;0.80;;
49175;SDS011;35012;47.200;9.748;2023-11-21T09:12:16;1.03;;;1.00;;
49175;SDS011;35012;47.200;9.748;2023-11-21T09:14:42;0.50;;;0.50;;
49175;SDS011;35012;47.200;9.748;2023-11-21T09:17:09;1.13;;;1.10;;
49175;SDS011;35012;47.200;9.748;2023-11-21T09:19:38;0.63;;;0.63;;
49175;SDS011;35012;47.200;9.748;2023-11-21T09:22:03;0.30;;;0.30;;
49175;SDS011;35012;47.200;9.748;2023-11-21T09:24:30;0.67;;;0.67;;
49175;SDS011;35012;47.200;9.748;2023-11-21T09:26:56;0.57;;;0.57;;
49175;SDS011;35012;47.200;9.748;2023-11-21T09:29:21;0.30;;;0.30;;
49175;SDS011;35012;47.200;9.748;2023-11-21T09:31:47;0.30;;;0.30;;
49175;SDS011;35012;47.200;9.748;2023-11-21T09:34:13;0.70;;;0.70;;
49175;SDS011;35012;47.200;9.748;2023-11-21T09:36:38;1.13;;;1.10;;
49175;SDS011;35012;47.200;9.748;2023-11-21T09:39:04;1.03;;;0.93;;
49175;SDS011;35012;47.200;9.748;2023-11-21T09:41:55;0.30;;;0.30;;
49175;SDS011;35012;47.200;9.748;2023-11-21T09:44:29;1.13;;;0.60;;
49175;SDS011;35012;47.200;9.748;2023-11-21T09:47:00;0.40;;;0.40;;
49175;SDS011;35012;47.200;9.748;2023-11-21T09:49:25;1.13;;;1.03;;
49175;SDS011;35012;47.200;9.748;2023-11-21T09:51:51;0.40;;;0.40;;
49175;SDS011;35012;47.200;9.748;2023-11-21T09:54:20;1.33;;;0.97;;
49175;SDS011;35012;47.200;9.748;2023-11-21T09:56:46;0.50;;;0.50;;
49175;SDS011;35012;47.200;9.748;2023-11-21T09:59:13;1.00;;;1.00;;
49175;SDS011;35012;47.200;9.748;2023-11-21T10:01:41;0.73;;;0.40;;
49175;SDS011;35012;47.200;9.748;2023-11-21T10:04:07;0.87;;;0.87;;
49175;SDS011;35012;47.200;9.748;2023-11-21T10:06:41;0.40;;;0.40;;
49175;SDS011;35012;47.200;9.748;2023-11-21T10:09:10;0.30;;;0.30;;
49175;SDS011;35012;47.200;9.748;2023-11-21T10:11:40;0.30;;;0.30;;
49175;SDS011;35012;47.200;9.748;2023-11-21T10:14:07;0.60;;;0.60;;
49175;SDS011;35012;47.200;9.748;2023-11-21T10:16:35;0.37;;;0.37;;
49175;SDS011;35012;47.200;9.748;2023-11-21T10:19:02;0.27;;;0.27;;
49175;SDS011;35012;47.200;9.748;2023-11-21T10:21:28;0.30;;;0.30;;
49175;SDS011;35012;47.200;9.748;2023-11-21T10:23:54;0.87;;;0.80;;
49175;SDS011;35012;47.200;9.748;2023-11-21T10:26:20;0.60;;;0.60;;
49175;SDS011;35012;47.200;9.748;2023-11-21T10:28:57;0.60;;;0.60;;
49175;SDS011;35012;47.200;9.748;2023-11-21T10:31:23;0.30;;;0.30;;
49175;SDS011;35012;47.200;9.748;2023-11-21T10:33:51;0.40;;;0.40;;
49175;SDS011;35012;47.200;9.748;2023-11-21T10:36:26;0.50;;;0.50;;
49175;SDS011;35012;47.200;9.748;2023-11-21T10:38:52;0.20;;;0.17;;
49175;SDS011;35012;47.200;9.748;2023-11-21T10:41:19;1.13;;;0.83;;
49175;SDS011;35012;47.200;9.748;2023-11-21T10:43:47;0.23;;;0.23;;
49175;SDS011;35012;47.200;9.748;2023-11-21T10:46:14;0.30;;;0.30;;
49175;SDS011;35012;47.200;9.748;2023-11-21T10:48:41;0.30;;;0.30;;
49175;SDS011;35012;47.200;9.748;2023-11-21T10:51:07;0.40;;;0.40;;
49175;SDS011;35012;47.200;9.748;2023-11-21T10:53:37;0.20;;;0.20;;
49175;SDS011;35012;47.200;9.748;2023-11-21T10:56:05;0.50;;;0.50;;
49175;SDS011;35012;47.200;9.748;2023-11-21T10:58:36;0.47;;;0.47;;
49175;SDS011;35012;47.200;9.748;2023-11-21T11:01:02;0.30;;;0.30;;
49175;SDS011;35012;47.200;9.748;2023-11-21T11:03:31;0.27;;;0.27;;
49175;SDS011;35012;47.200;9.748;2023-11-21T11:05:58;0.30;;;0.30;;
49175;SDS011;35012;47.200;9.748;2023-11-21T11:08:24;0.77;;;0.77;;
49175;SDS011;35012;47.200;9.748;2023-11-21T11:10:51;0.30;;;0.30;;
49175;SDS011;35012;47.200;9.748;2023-11-21T11:13:17;0.80;;;0.73;;
49175;SDS011;35012;47.200;9.748;2023-11-21T11:15:43;0.30;;;0.30;;
49175;SDS011;35012;47.200;9.748;2023-11-21T11:18:12;1.30;;;0.73;;
49175;SDS011;35012;47.200;9.748;2023-11-21T11:20:38;1.27;;;0.60;;
49175;SDS011;35012;47.200;9.748;2023-11-21T11:28:08;0.20;;;0.20;;
49175;SDS011;35012;47.200;9.748;2023-11-21T11:31:00;0.40;;;0.40;;
49175;SDS011;35012;47.200;9.748;2023-11-21T11:36:17;0.57;;;0.50;;
49175;SDS011;35012;47.200;9.748;2023-11-21T11:38:50;0.40;;;0.40;;
49175;SDS011;35012;47.200;9.748;2023-11-21T11:41:26;0.80;;;0.63;;
49175;SDS011;35012;47.200;9.748;2023-11-21T11:43:57;0.23;;;0.23;;
49175;SDS011;35012;47.200;9.748;2023-11-21T11:46:42;0.30;;;0.30;;
49175;SDS011;35012;47.200;9.748;2023-11-21T11:49:11;2.20;;;0.60;;
49175;SDS011;35012;47.200;9.748;2023-11-21T11:52:11;0.30;;;0.30;;
49175;SDS011;35012;47.200;9.748;2023-11-21T11:54:53;0.47;;;0.47;;
49175;SDS011;35012;47.200;9.748;2023-11-21T11:57:18;0.27;;;0.27;;
49175;SDS011;35012;47.200;9.748;2023-11-21T12:02:35;0.23;;;0.23;;
49175;SDS011;35012;47.200;9.748;2023-11-21T12:05:06;0.63;;;0.30;;
49175;SDS011;35012;47.200;9.748;2023-11-21T12:07:44;0.27;;;0.27;;
49175;SDS011;35012;47.200;9.748;2023-11-21T12:10:11;0.20;;;0.20;;
49175;SDS011;35012;47.200;9.748;2023-11-21T12:12:41;0.20;;;0.20;;
49175;SDS011;35012;47.200;9.748;2023-11-21T12:15:08;0.20;;;0.20;;
49175;SDS011;35012;47.200;9.748;2023-11-21T12:17:34;0.20;;;0.10;;
49175;SDS011;35012;47.200;9.748;2023-11-21T12:20:03;0.20;;;0.13;;
49175;SDS011;35012;47.200;9.748;2023-11-21T12:22:29;0.20;;;0.20;;
49175;SDS011;35012;47.200;9.748;2023-11-21T12:24:55;0.20;;;0.20;;
49175;SDS011;35012;47.200;9.748;2023-11-21T12:27:21;0.40;;;0.40;;
49175;SDS011;35012;47.200;9.748;2023-11-21T12:29:46;0.30;;;0.30;;
49175;SDS011;35012;47.200;9.748;2023-11-21T12:32:12;0.23;;;0.23;;
49175;SDS011;35012;47.200;9.748;2023-11-21T12:34:38;0.50;;;0.50;;
49175;SDS011;35012;47.200;9.748;2023-11-21T12:37:04;0.30;;;0.30;;
49175;SDS011;35012;47.200;9.748;2023-11-21T12:39:29;0.37;;;0.37;;
49175;SDS011;35012;47.200;9.748;2023-11-21T12:41:55;0.30;;;0.30;;
49175;SDS011;35012;47.200;9.748;2023-11-21T12:44:21;0.43;;;0.43;;
49175;SDS011;35012;47.200;9.748;2023-11-21T12:46:48;0.20;;;0.20;;
49175;SDS011;35012;47.200;9.748;2023-11-21T12:49:15;0.27;;;0.27;;
49175;SDS011;35012;47.200;9.748;2023-11-21T12:51:43;0.30;;;0.30;;
49175;SDS011;35012;47.200;9.748;2023-11-21T12:54:11;0.30;;;0.30;;
49175;SDS011;35012;47.200;9.748;2023-11-21T12:56:40;0.30;;;0.30;;
49175;SDS011;35012;47.200;9.748;2023-11-21T12:59:06;0.37;;;0.37;;
49175;SDS011;35012;47.200;9.748;2023-11-21T13:01:31;0.40;;;0.40;;
49175;SDS011;35012;47.200;9.748;2023-11-21T13:03:57;0.20;;;0.20;;
49175;SDS011;35012;47.200;9.748;2023-11-21T13:06:23;1.40;;;0.60;;
49175;SDS011;35012;47.200;9.748;2023-11-21T13:08:51;0.40;;;0.40;;
49175;SDS011;35012;47.200;9.748;2023-11-21T13:11:16;0.43;;;0.43;;
49175;SDS011;35012;47.200;9.748;2023-11-21T13:13:42;0.40;;;0.40;;
49175;SDS011;35012;47.200;9.748;2023-11-21T13:16:11;0.30;;;0.30;;
49175;SDS011;35012;47.200;9.748;2023-11-21T13:18:37;0.23;;;0.23;;
49175;SDS011;35012;47.200;9.748;2023-11-21T13:21:05;0.30;;;0.30;;
49175;SDS011;35012;47.200;9.748;2023-11-21T13:23:42;0.30;;;0.30;;
49175;SDS011;35012;47.200;9.748;2023-11-21T13:26:08;0.30;;;0.30;;
49175;SDS011;35012;47.200;9.748;2023-11-21T13:28:34;0.30;;;0.30;;
49175;SDS011;35012;47.200;9.748;2023-11-21T13:31:01;0.30;;;0.30;;
49175;SDS011;35012;47.200;9.748;2023-11-21T13:33:29;0.30;;;0.30;;
49175;SDS011;35012;47.200;9.748;2023-11-21T13:35:55;0.30;;;0.30;;
49175;SDS011;35012;47.200;9.748;2023-11-21T13:38:21;0.40;;;0.40;;
49175;SDS011;35012;47.200;9.748;2023-11-21T13:43:17;0.30;;;0.30;;
49175;SDS011;35012;47.200;9.748;2023-11-21T13:45:45;0.30;;;0.30;;
49175;SDS011;35012;47.200;9.748;2023-11-21T13:48:11;0.63;;;0.63;;
49175;SDS011;35012;47.200;9.748;2023-11-21T13:50:50;0.30;;;0.30;;
49175;SDS011;35012;47.200;9.748;2023-11-21T13:53:27;0.23;;;0.23;;
49175;SDS011;35012;47.200;9.748;2023-11-21T13:55:53;0.60;;;0.60;;
49175;SDS011;35012;47.200;9.748;2023-11-21T13:58:26;0.30;;;0.30;;
49175;SDS011;35012;47.200;9.748;2023-11-21T14:01:06;0.30;;;0.30;;
49175;SDS011;35012;47.200;9.748;2023-11-21T14:03:41;0.80;;;0.80;;
49175;SDS011;35012;47.200;9.748;2023-11-21T14:06:16;0.30;;;0.30;;
49175;SDS011;35012;47.200;9.748;2023-11-21T14:08:49;0.53;;;0.50;;
49175;SDS011;35012;47.200;9.748;2023-11-21T14:11:14;0.30;;;0.30;;
49175;SDS011;35012;47.200;9.748;2023-11-21T14:13:43;0.27;;;0.27;;
49175;SDS011;35012;47.200;9.748;2023-11-21T14:16:12;0.60;;;0.60;;
49175;SDS011;35012;47.200;9.748;2023-11-21T14:18:39;0.53;;;0.53;;
49175;SDS011;35012;47.200;9.748;2023-11-21T14:21:15;0.30;;;0.30;;
49175;SDS011;35012;47.200;9.748;2023-11-21T14:23:41;0.30;;;0.30;;
49175;SDS011;35012;47.200;9.748;2023-11-21T14:26:08;0.30;;;0.30;;
49175;SDS011;35012;47.200;9.748;2023-11-21T14:28:33;0.40;;;0.40;;
49175;SDS011;35012;47.200;9.748;2023-11-21T14:31:00;0.30;;;0.30;;
49175;SDS011;35012;47.200;9.748;2023-11-21T14:33:26;0.30;;;0.30;;
49175;SDS011;35012;47.200;9.748;2023-11-21T14:35:52;0.30;;;0.30;;
49175;SDS011;35012;47.200;9.748;2023-11-21T14:38:17;0.67;;;0.67;;
49175;SDS011;35012;47.200;9.748;2023-11-21T14:40:43;0.30;;;0.30;;
49175;SDS011;35012;47.200;9.748;2023-11-21T14:43:09;0.30;;;0.30;;
49175;SDS011;35012;47.200;9.748;2023-11-21T14:45:35;0.30;;;0.30;;
49175;SDS011;35012;47.200;9.748;2023-11-21T14:48:01;0.73;;;0.70;;
49175;SDS011;35012;47.200;9.748;2023-11-21T14:50:46;0.27;;;0.27;;
49175;SDS011;35012;47.200;9.748;2023-11-21T14:53:27;0.30;;;0.30;;
49175;SDS011;35012;47.200;9.748;2023-11-21T14:56:13;0.30;;;0.30;;
49175;SDS011;35012;47.200;9.748;2023-11-21T14:58:46;0.30;;;0.30;;
49175;SDS011;35012;47.200;9.748;2023-11-21T15:01:11;0.30;;;0.30;;